sensor_id;sensor_type;location;lat;lon;timestamp;P1;durP1;ratioP1;P2;durP2;ratioP2
47431;SDS011;33183;52.290;6.144;2023-02-26T00:01:15;4.53;;;2.30;;
47431;SDS011;33183;52.290;6.144;2023-02-26T00:03:41;6.00;;;2.28;;
47431;SDS011;33183;52.290;6.144;2023-02-26T00:06:07;3.63;;;2.22;;
47431;SDS011;33183;52.290;6.144;2023-02-26T00:08:32;4.35;;;2.33;;
47431;SDS011;33183;52.290;6.144;2023-02-26T00:10:58;5.18;;;2.63;;
47431;SDS011;33183;52.290;6.144;2023-02-26T00:13:25;3.35;;;2.10;;
47431;SDS011;33183;52.290;6.144;2023-02-26T00:15:53;2.55;;;1.80;;
47431;SDS011;33183;52.290;6.144;2023-02-26T00:20:46;2.85;;;1.90;;
47431;SDS011;33183;52.290;6.144;2023-02-26T00:23:11;4.05;;;2.30;;
47431;SDS011;33183;52.290;6.144;2023-02-26T00:25:38;3.08;;;1.92;;
47431;SDS011;33183;52.290;6.144;2023-02-26T00:28:07;2.72;;;1.90;;
47431;SDS011;33183;52.290;6.144;2023-02-26T00:30:33;3.65;;;2.15;;
47431;SDS011;33183;52.290;6.144;2023-02-26T00:32:59;3.65;;;2.35;;
47431;SDS011;33183;52.290;6.144;2023-02-26T00:35:24;4.00;;;2.60;;
47431;SDS011;33183;52.290;6.144;2023-02-26T00:40:34;2.83;;;1.92;;
47431;SDS011;33183;52.290;6.144;2023-02-26T00:43:03;2.47;;;1.70;;
47431;SDS011;33183;52.290;6.144;2023-02-26T00:45:30;3.40;;;1.92;;
47431;SDS011;33183;52.290;6.144;2023-02-26T00:48:05;3.05;;;1.75;;
47431;SDS011;33183;52.290;6.144;2023-02-26T00:50:39;4.03;;;2.17;;
47431;SDS011;33183;52.290;6.144;2023-02-26T00:53:21;3.53;;;2.03;;
47431;SDS011;33183;52.290;6.144;2023-02-26T00:55:50;3.33;;;1.88;;
47431;SDS011;33183;52.290;6.144;2023-02-26T00:58:15;3.58;;;1.90;;
47431;SDS011;33183;52.290;6.144;2023-02-26T01:00:40;2.60;;;1.70;;
47431;SDS011;33183;52.290;6.144;2023-02-26T01:03:06;2.72;;;1.80;;
47431;SDS011;33183;52.290;6.144;2023-02-26T01:05:31;2.67;;;1.65;;
47431;SDS011;33183;52.290;6.144;2023-02-26T01:10:48;3.15;;;1.90;;
47431;SDS011;33183;52.290;6.144;2023-02-26T01:13:14;2.13;;;1.50;;
47431;SDS011;33183;52.290;6.144;2023-02-26T01:15:40;3.25;;;1.70;;
47431;SDS011;33183;52.290;6.144;2023-02-26T01:18:12;3.10;;;1.75;;
47431;SDS011;33183;52.290;6.144;2023-02-26T01:20:43;4.53;;;1.98;;
47431;SDS011;33183;52.290;6.144;2023-02-26T01:23:13;3.40;;;1.98;;
47431;SDS011;33183;52.290;6.144;2023-02-26T01:25:50;3.90;;;1.95;;
47431;SDS011;33183;52.290;6.144;2023-02-26T01:28:21;3.08;;;1.50;;
47431;SDS011;33183;52.290;6.144;2023-02-26T01:30:47;3.60;;;1.77;;
47431;SDS011;33183;52.290;6.144;2023-02-26T01:33:16;2.75;;;1.40;;
47431;SDS011;33183;52.290;6.144;2023-02-26T01:38:25;2.22;;;1.48;;
47431;SDS011;33183;52.290;6.144;2023-02-26T01:41:35;4.07;;;1.75;;
47431;SDS011;33183;52.290;6.144;2023-02-26T01:49:35;2.75;;;1.75;;
47431;SDS011;33183;52.290;6.144;2023-02-26T01:52:05;3.30;;;1.27;;
47431;SDS011;33183;52.290;6.144;2023-02-26T01:54:32;3.80;;;1.63;;
47431;SDS011;33183;52.290;6.144;2023-02-26T01:57:13;3.38;;;2.03;;
47431;SDS011;33183;52.290;6.144;2023-02-26T01:59:42;2.30;;;1.40;;
47431;SDS011;33183;52.290;6.144;2023-02-26T02:02:11;2.40;;;1.42;;
47431;SDS011;33183;52.290;6.144;2023-02-26T02:04:37;2.95;;;1.60;;
47431;SDS011;33183;52.290;6.144;2023-02-26T02:07:04;3.88;;;1.60;;
47431;SDS011;33183;52.290;6.144;2023-02-26T02:09:30;1.90;;;1.50;;
47431;SDS011;33183;52.290;6.144;2023-02-26T02:12:01;2.72;;;1.58;;
47431;SDS011;33183;52.290;6.144;2023-02-26T02:20:10;2.28;;;1.27;;
47431;SDS011;33183;52.290;6.144;2023-02-26T02:31:04;2.38;;;1.40;;
47431;SDS011;33183;52.290;6.144;2023-02-26T02:33:43;2.47;;;1.38;;
47431;SDS011;33183;52.290;6.144;2023-02-26T02:36:32;2.45;;;1.58;;
47431;SDS011;33183;52.290;6.144;2023-02-26T02:39:10;2.83;;;1.48;;
47431;SDS011;33183;52.290;6.144;2023-02-26T02:41:48;3.53;;;1.40;;
47431;SDS011;33183;52.290;6.144;2023-02-26T02:44:18;2.53;;;1.33;;
47431;SDS011;33183;52.290;6.144;2023-02-26T02:46:46;3.85;;;1.85;;
47431;SDS011;33183;52.290;6.144;2023-02-26T02:49:18;2.47;;;1.33;;
47431;SDS011;33183;52.290;6.144;2023-02-26T02:51:51;2.60;;;1.27;;
47431;SDS011;33183;52.290;6.144;2023-02-26T02:54:21;3.10;;;1.25;;
47431;SDS011;33183;52.290;6.144;2023-02-26T02:59:33;3.00;;;1.40;;
47431;SDS011;33183;52.290;6.144;2023-02-26T03:04:42;2.42;;;1.20;;
47431;SDS011;33183;52.290;6.144;2023-02-26T03:07:07;1.95;;;1.20;;
47431;SDS011;33183;52.290;6.144;2023-02-26T03:09:33;2.45;;;1.55;;
47431;SDS011;33183;52.290;6.144;2023-02-26T03:11:58;2.50;;;1.10;;
47431;SDS011;33183;52.290;6.144;2023-02-26T03:14:24;1.92;;;1.13;;
47431;SDS011;33183;52.290;6.144;2023-02-26T03:25:06;2.28;;;1.25;;
47431;SDS011;33183;52.290;6.144;2023-02-26T03:27:45;3.65;;;1.52;;
47431;SDS011;33183;52.290;6.144;2023-02-26T03:30:18;2.38;;;1.25;;
47431;SDS011;33183;52.290;6.144;2023-02-26T03:38:39;2.00;;;1.27;;
47431;SDS011;33183;52.290;6.144;2023-02-26T03:41:06;1.95;;;1.20;;
47431;SDS011;33183;52.290;6.144;2023-02-26T03:43:38;2.28;;;1.33;;
47431;SDS011;33183;52.290;6.144;2023-02-26T03:46:08;1.63;;;1.02;;
47431;SDS011;33183;52.290;6.144;2023-02-26T03:48:37;2.45;;;1.60;;
47431;SDS011;33183;52.290;6.144;2023-02-26T03:51:04;2.53;;;1.10;;
47431;SDS011;33183;52.290;6.144;2023-02-26T03:53:34;2.55;;;1.23;;
47431;SDS011;33183;52.290;6.144;2023-02-26T03:56:49;2.40;;;1.10;;
47431;SDS011;33183;52.290;6.144;2023-02-26T03:58:52;1.70;;;1.38;;
47431;SDS011;33183;52.290;6.144;2023-02-26T04:01:25;4.35;;;1.48;;
47431;SDS011;33183;52.290;6.144;2023-02-26T04:04:00;2.55;;;1.20;;
47431;SDS011;33183;52.290;6.144;2023-02-26T04:06:47;2.53;;;1.08;;
47431;SDS011;33183;52.290;6.144;2023-02-26T04:09:12;1.98;;;1.20;;
47431;SDS011;33183;52.290;6.144;2023-02-26T04:11:38;1.40;;;1.00;;
47431;SDS011;33183;52.290;6.144;2023-02-26T04:14:03;2.03;;;1.00;;
47431;SDS011;33183;52.290;6.144;2023-02-26T04:16:29;1.50;;;1.10;;
47431;SDS011;33183;52.290;6.144;2023-02-26T04:18:54;2.70;;;1.17;;
47431;SDS011;33183;52.290;6.144;2023-02-26T04:21:20;1.58;;;0.80;;
47431;SDS011;33183;52.290;6.144;2023-02-26T04:23:46;2.45;;;1.15;;
47431;SDS011;33183;52.290;6.144;2023-02-26T04:26:12;1.58;;;1.10;;
47431;SDS011;33183;52.290;6.144;2023-02-26T04:28:37;1.67;;;1.10;;
47431;SDS011;33183;52.290;6.144;2023-02-26T04:31:04;1.15;;;0.70;;
47431;SDS011;33183;52.290;6.144;2023-02-26T04:33:30;2.75;;;1.45;;
47431;SDS011;33183;52.290;6.144;2023-02-26T04:35:56;1.95;;;1.20;;
47431;SDS011;33183;52.290;6.144;2023-02-26T04:38:21;2.00;;;1.00;;
47431;SDS011;33183;52.290;6.144;2023-02-26T04:40:47;2.38;;;1.30;;
47431;SDS011;33183;52.290;6.144;2023-02-26T04:43:14;1.42;;;1.08;;
47431;SDS011;33183;52.290;6.144;2023-02-26T04:45:39;2.50;;;0.95;;
47431;SDS011;33183;52.290;6.144;2023-02-26T04:48:04;2.13;;;0.90;;
47431;SDS011;33183;52.290;6.144;2023-02-26T04:50:30;0.90;;;0.77;;
47431;SDS011;33183;52.290;6.144;2023-02-26T04:52:55;2.28;;;1.10;;
47431;SDS011;33183;52.290;6.144;2023-02-26T04:55:20;2.75;;;0.93;;
47431;SDS011;33183;52.290;6.144;2023-02-26T04:57:46;1.77;;;0.98;;
47431;SDS011;33183;52.290;6.144;2023-02-26T05:00:11;2.30;;;1.13;;
47431;SDS011;33183;52.290;6.144;2023-02-26T05:02:37;3.67;;;1.33;;
47431;SDS011;33183;52.290;6.144;2023-02-26T05:05:02;2.20;;;1.15;;
47431;SDS011;33183;52.290;6.144;2023-02-26T05:07:28;3.22;;;0.90;;
47431;SDS011;33183;52.290;6.144;2023-02-26T05:09:53;2.47;;;1.30;;
47431;SDS011;33183;52.290;6.144;2023-02-26T05:12:18;1.98;;;1.20;;
47431;SDS011;33183;52.290;6.144;2023-02-26T05:14:44;2.65;;;1.10;;
47431;SDS011;33183;52.290;6.144;2023-02-26T05:17:09;2.40;;;1.00;;
47431;SDS011;33183;52.290;6.144;2023-02-26T05:19:35;2.47;;;1.00;;
47431;SDS011;33183;52.290;6.144;2023-02-26T05:22:00;1.70;;;0.90;;
47431;SDS011;33183;52.290;6.144;2023-02-26T05:24:26;3.30;;;0.93;;
47431;SDS011;33183;52.290;6.144;2023-02-26T05:26:51;0.90;;;0.60;;
47431;SDS011;33183;52.290;6.144;2023-02-26T05:29:17;1.98;;;0.95;;
47431;SDS011;33183;52.290;6.144;2023-02-26T05:31:42;1.67;;;0.90;;
47431;SDS011;33183;52.290;6.144;2023-02-26T05:34:07;1.42;;;1.08;;
47431;SDS011;33183;52.290;6.144;2023-02-26T05:36:33;2.22;;;1.10;;
47431;SDS011;33183;52.290;6.144;2023-02-26T05:38:58;2.33;;;1.00;;
47431;SDS011;33183;52.290;6.144;2023-02-26T05:41:24;4.35;;;1.50;;
47431;SDS011;33183;52.290;6.144;2023-02-26T05:43:49;2.75;;;1.50;;
47431;SDS011;33183;52.290;6.144;2023-02-26T05:46:14;5.88;;;2.33;;
47431;SDS011;33183;52.290;6.144;2023-02-26T05:48:40;4.70;;;2.30;;
47431;SDS011;33183;52.290;6.144;2023-02-26T05:51:05;6.38;;;2.38;;
47431;SDS011;33183;52.290;6.144;2023-02-26T05:53:30;4.90;;;2.75;;
47431;SDS011;33183;52.290;6.144;2023-02-26T05:55:55;5.05;;;2.83;;
47431;SDS011;33183;52.290;6.144;2023-02-26T05:58:21;6.05;;;2.53;;
47431;SDS011;33183;52.290;6.144;2023-02-26T06:00:46;6.22;;;3.17;;
47431;SDS011;33183;52.290;6.144;2023-02-26T06:03:11;6.85;;;3.15;;
47431;SDS011;33183;52.290;6.144;2023-02-26T06:05:37;6.13;;;3.28;;
47431;SDS011;33183;52.290;6.144;2023-02-26T06:08:03;17.75;;;4.32;;
47431;SDS011;33183;52.290;6.144;2023-02-26T06:10:29;5.97;;;3.28;;
47431;SDS011;33183;52.290;6.144;2023-02-26T06:12:54;6.07;;;2.67;;
47431;SDS011;33183;52.290;6.144;2023-02-26T06:15:20;5.70;;;3.22;;
47431;SDS011;33183;52.290;6.144;2023-02-26T06:17:45;6.95;;;2.72;;
47431;SDS011;33183;52.290;6.144;2023-02-26T06:20:10;6.15;;;3.10;;
47431;SDS011;33183;52.290;6.144;2023-02-26T06:22:36;4.32;;;2.50;;
47431;SDS011;33183;52.290;6.144;2023-02-26T06:25:02;6.50;;;3.10;;
47431;SDS011;33183;52.290;6.144;2023-02-26T06:27:27;5.15;;;2.65;;
47431;SDS011;33183;52.290;6.144;2023-02-26T06:29:52;4.45;;;2.58;;
47431;SDS011;33183;52.290;6.144;2023-02-26T06:32:18;6.97;;;2.90;;
47431;SDS011;33183;52.290;6.144;2023-02-26T06:34:43;5.07;;;2.47;;
47431;SDS011;33183;52.290;6.144;2023-02-26T06:37:08;6.68;;;2.55;;
47431;SDS011;33183;52.290;6.144;2023-02-26T06:39:33;7.65;;;2.63;;
47431;SDS011;33183;52.290;6.144;2023-02-26T06:41:59;6.90;;;2.72;;
47431;SDS011;33183;52.290;6.144;2023-02-26T06:44:24;5.53;;;2.88;;
47431;SDS011;33183;52.290;6.144;2023-02-26T06:46:49;6.13;;;2.88;;
47431;SDS011;33183;52.290;6.144;2023-02-26T06:49:15;7.60;;;3.15;;
47431;SDS011;33183;52.290;6.144;2023-02-26T06:51:40;4.85;;;2.28;;
47431;SDS011;33183;52.290;6.144;2023-02-26T06:54:05;7.40;;;2.72;;
47431;SDS011;33183;52.290;6.144;2023-02-26T06:56:31;4.50;;;2.50;;
47431;SDS011;33183;52.290;6.144;2023-02-26T06:58:56;4.25;;;2.30;;
47431;SDS011;33183;52.290;6.144;2023-02-26T07:01:21;4.93;;;2.20;;
47431;SDS011;33183;52.290;6.144;2023-02-26T07:03:48;7.60;;;2.25;;
47431;SDS011;33183;52.290;6.144;2023-02-26T07:06:14;6.72;;;2.53;;
47431;SDS011;33183;52.290;6.144;2023-02-26T07:08:39;4.72;;;2.42;;
47431;SDS011;33183;52.290;6.144;2023-02-26T07:11:05;4.38;;;2.15;;
47431;SDS011;33183;52.290;6.144;2023-02-26T07:13:30;4.47;;;2.13;;
47431;SDS011;33183;52.290;6.144;2023-02-26T07:15:55;5.97;;;2.10;;
47431;SDS011;33183;52.290;6.144;2023-02-26T07:18:21;3.10;;;1.73;;
47431;SDS011;33183;52.290;6.144;2023-02-26T07:20:48;3.80;;;1.80;;
47431;SDS011;33183;52.290;6.144;2023-02-26T07:23:13;4.50;;;2.10;;
47431;SDS011;33183;52.290;6.144;2023-02-26T07:25:39;5.38;;;2.05;;
47431;SDS011;33183;52.290;6.144;2023-02-26T07:28:04;5.93;;;1.90;;
47431;SDS011;33183;52.290;6.144;2023-02-26T07:30:29;3.78;;;2.15;;
47431;SDS011;33183;52.290;6.144;2023-02-26T07:32:55;4.75;;;2.10;;
47431;SDS011;33183;52.290;6.144;2023-02-26T07:35:21;3.90;;;2.13;;
47431;SDS011;33183;52.290;6.144;2023-02-26T07:37:46;3.17;;;1.63;;
47431;SDS011;33183;52.290;6.144;2023-02-26T07:40:11;3.10;;;1.52;;
47431;SDS011;33183;52.290;6.144;2023-02-26T07:42:37;4.63;;;2.03;;
47431;SDS011;33183;52.290;6.144;2023-02-26T07:45:02;4.07;;;1.77;;
47431;SDS011;33183;52.290;6.144;2023-02-26T07:47:28;4.15;;;1.67;;
47431;SDS011;33183;52.290;6.144;2023-02-26T07:49:54;4.63;;;1.77;;
47431;SDS011;33183;52.290;6.144;2023-02-26T07:52:20;4.47;;;2.13;;
47431;SDS011;33183;52.290;6.144;2023-02-26T07:54:45;3.55;;;1.50;;
47431;SDS011;33183;52.290;6.144;2023-02-26T07:57:10;3.38;;;1.20;;
47431;SDS011;33183;52.290;6.144;2023-02-26T07:59:36;4.38;;;1.63;;
47431;SDS011;33183;52.290;6.144;2023-02-26T08:02:01;3.35;;;1.83;;
47431;SDS011;33183;52.290;6.144;2023-02-26T08:04:26;4.93;;;1.45;;
47431;SDS011;33183;52.290;6.144;2023-02-26T08:06:56;3.50;;;1.70;;
47431;SDS011;33183;52.290;6.144;2023-02-26T08:09:22;4.15;;;1.30;;
47431;SDS011;33183;52.290;6.144;2023-02-26T08:11:48;3.92;;;1.40;;
47431;SDS011;33183;52.290;6.144;2023-02-26T08:14:13;4.40;;;2.00;;
47431;SDS011;33183;52.290;6.144;2023-02-26T08:16:38;3.28;;;1.48;;
47431;SDS011;33183;52.290;6.144;2023-02-26T08:19:04;3.03;;;1.50;;
47431;SDS011;33183;52.290;6.144;2023-02-26T08:21:30;5.05;;;1.50;;
47431;SDS011;33183;52.290;6.144;2023-02-26T08:23:55;3.20;;;1.40;;
47431;SDS011;33183;52.290;6.144;2023-02-26T08:26:20;4.22;;;1.38;;
47431;SDS011;33183;52.290;6.144;2023-02-26T08:28:46;3.67;;;1.67;;
47431;SDS011;33183;52.290;6.144;2023-02-26T08:31:12;2.78;;;1.38;;
47431;SDS011;33183;52.290;6.144;2023-02-26T08:33:38;3.42;;;2.05;;
47431;SDS011;33183;52.290;6.144;2023-02-26T08:36:03;3.00;;;1.20;;
47431;SDS011;33183;52.290;6.144;2023-02-26T08:38:29;5.13;;;1.38;;
47431;SDS011;33183;52.290;6.144;2023-02-26T08:40:55;3.63;;;1.67;;
47431;SDS011;33183;52.290;6.144;2023-02-26T08:43:21;3.22;;;1.50;;
47431;SDS011;33183;52.290;6.144;2023-02-26T08:45:46;3.75;;;1.38;;
47431;SDS011;33183;52.290;6.144;2023-02-26T08:48:12;2.85;;;1.10;;
47431;SDS011;33183;52.290;6.144;2023-02-26T08:50:38;1.83;;;1.23;;
47431;SDS011;33183;52.290;6.144;2023-02-26T08:53:04;2.50;;;1.23;;
47431;SDS011;33183;52.290;6.144;2023-02-26T08:55:30;3.20;;;1.20;;
47431;SDS011;33183;52.290;6.144;2023-02-26T08:57:55;3.80;;;1.25;;
47431;SDS011;33183;52.290;6.144;2023-02-26T09:00:21;3.55;;;1.30;;
47431;SDS011;33183;52.290;6.144;2023-02-26T09:02:47;2.03;;;1.48;;
47431;SDS011;33183;52.290;6.144;2023-02-26T09:05:12;3.40;;;1.25;;
47431;SDS011;33183;52.290;6.144;2023-02-26T09:07:39;2.42;;;1.02;;
47431;SDS011;33183;52.290;6.144;2023-02-26T09:10:05;2.42;;;1.15;;
47431;SDS011;33183;52.290;6.144;2023-02-26T09:12:31;2.67;;;0.98;;
47431;SDS011;33183;52.290;6.144;2023-02-26T09:14:57;1.63;;;1.00;;
47431;SDS011;33183;52.290;6.144;2023-02-26T09:17:23;4.35;;;1.55;;
47431;SDS011;33183;52.290;6.144;2023-02-26T09:19:49;3.33;;;1.35;;
47431;SDS011;33183;52.290;6.144;2023-02-26T09:22:14;4.13;;;1.02;;
47431;SDS011;33183;52.290;6.144;2023-02-26T09:24:39;3.25;;;1.20;;
47431;SDS011;33183;52.290;6.144;2023-02-26T09:27:05;2.88;;;1.38;;
47431;SDS011;33183;52.290;6.144;2023-02-26T09:29:30;4.45;;;1.20;;
47431;SDS011;33183;52.290;6.144;2023-02-26T09:31:55;3.00;;;1.20;;
47431;SDS011;33183;52.290;6.144;2023-02-26T09:34:20;2.13;;;1.10;;
47431;SDS011;33183;52.290;6.144;2023-02-26T09:36:46;2.33;;;1.17;;
47431;SDS011;33183;52.290;6.144;2023-02-26T09:39:11;2.17;;;0.82;;
47431;SDS011;33183;52.290;6.144;2023-02-26T09:41:38;2.20;;;1.02;;
47431;SDS011;33183;52.290;6.144;2023-02-26T09:44:16;1.98;;;1.30;;
47431;SDS011;33183;52.290;6.144;2023-02-26T09:52:27;2.38;;;0.90;;
47431;SDS011;33183;52.290;6.144;2023-02-26T09:54:59;2.83;;;1.20;;
47431;SDS011;33183;52.290;6.144;2023-02-26T09:59:58;2.38;;;1.30;;
47431;SDS011;33183;52.290;6.144;2023-02-26T10:02:37;1.42;;;0.75;;
47431;SDS011;33183;52.290;6.144;2023-02-26T10:07:44;2.50;;;1.00;;
47431;SDS011;33183;52.290;6.144;2023-02-26T10:13:01;1.67;;;0.70;;
47431;SDS011;33183;52.290;6.144;2023-02-26T10:15:36;2.05;;;1.25;;
47431;SDS011;33183;52.290;6.144;2023-02-26T10:18:07;1.27;;;0.80;;
47431;SDS011;33183;52.290;6.144;2023-02-26T10:20:38;3.05;;;0.90;;
47431;SDS011;33183;52.290;6.144;2023-02-26T10:23:16;2.47;;;0.80;;
47431;SDS011;33183;52.290;6.144;2023-02-26T10:25:47;2.25;;;0.82;;
47431;SDS011;33183;52.290;6.144;2023-02-26T10:28:38;2.30;;;0.80;;
47431;SDS011;33183;52.290;6.144;2023-02-26T10:34:07;2.40;;;0.90;;
47431;SDS011;33183;52.290;6.144;2023-02-26T10:36:53;3.58;;;0.75;;
47431;SDS011;33183;52.290;6.144;2023-02-26T10:42:29;2.58;;;0.63;;
47431;SDS011;33183;52.290;6.144;2023-02-26T10:47:41;1.88;;;0.75;;
47431;SDS011;33183;52.290;6.144;2023-02-26T10:50:14;2.10;;;1.05;;
47431;SDS011;33183;52.290;6.144;2023-02-26T10:52:41;2.50;;;1.02;;
47431;SDS011;33183;52.290;6.144;2023-02-26T10:58:13;1.92;;;0.70;;
47431;SDS011;33183;52.290;6.144;2023-02-26T11:00:41;1.45;;;0.75;;
47431;SDS011;33183;52.290;6.144;2023-02-26T11:03:17;1.95;;;0.80;;
47431;SDS011;33183;52.290;6.144;2023-02-26T11:05:45;2.08;;;0.73;;
47431;SDS011;33183;52.290;6.144;2023-02-26T11:08:34;3.05;;;0.88;;
47431;SDS011;33183;52.290;6.144;2023-02-26T11:11:00;1.75;;;0.77;;
47431;SDS011;33183;52.290;6.144;2023-02-26T11:13:31;5.05;;;1.65;;
47431;SDS011;33183;52.290;6.144;2023-02-26T11:16:00;2.20;;;0.80;;
47431;SDS011;33183;52.290;6.144;2023-02-26T11:18:33;1.88;;;0.90;;
47431;SDS011;33183;52.290;6.144;2023-02-26T11:21:04;1.10;;;0.63;;
47431;SDS011;33183;52.290;6.144;2023-02-26T11:23:30;4.28;;;2.10;;
47431;SDS011;33183;52.290;6.144;2023-02-26T11:25:59;4.13;;;1.55;;
47431;SDS011;33183;52.290;6.144;2023-02-26T11:28:29;3.83;;;1.55;;
47431;SDS011;33183;52.290;6.144;2023-02-26T11:31:06;2.13;;;1.48;;
47431;SDS011;33183;52.290;6.144;2023-02-26T11:33:36;2.72;;;1.40;;
47431;SDS011;33183;52.290;6.144;2023-02-26T11:36:05;2.70;;;1.38;;
47431;SDS011;33183;52.290;6.144;2023-02-26T11:38:33;2.55;;;1.25;;
47431;SDS011;33183;52.290;6.144;2023-02-26T11:40:59;2.22;;;1.30;;
47431;SDS011;33183;52.290;6.144;2023-02-26T11:43:26;1.95;;;1.10;;
47431;SDS011;33183;52.290;6.144;2023-02-26T11:45:59;2.90;;;1.17;;
47431;SDS011;33183;52.290;6.144;2023-02-26T11:48:27;2.30;;;1.23;;
47431;SDS011;33183;52.290;6.144;2023-02-26T11:50:58;2.47;;;1.27;;
47431;SDS011;33183;52.290;6.144;2023-02-26T11:53:35;3.85;;;1.30;;
47431;SDS011;33183;52.290;6.144;2023-02-26T11:56:14;2.25;;;0.95;;
47431;SDS011;33183;52.290;6.144;2023-02-26T11:58:52;2.50;;;1.03;;
47431;SDS011;33183;52.290;6.144;2023-02-26T12:01:19;2.38;;;1.05;;
47431;SDS011;33183;52.290;6.144;2023-02-26T12:03:47;2.13;;;1.00;;
47431;SDS011;33183;52.290;6.144;2023-02-26T12:06:16;2.63;;;1.10;;
47431;SDS011;33183;52.290;6.144;2023-02-26T12:08:42;1.63;;;0.98;;
47431;SDS011;33183;52.290;6.144;2023-02-26T12:19:38;3.25;;;1.08;;
47431;SDS011;33183;52.290;6.144;2023-02-26T12:22:50;2.33;;;1.13;;
47431;SDS011;33183;52.290;6.144;2023-02-26T12:39:29;1.17;;;0.63;;
47431;SDS011;33183;52.290;6.144;2023-02-26T12:42:17;2.53;;;0.88;;
47431;SDS011;33183;52.290;6.144;2023-02-26T13:09:24;2.00;;;0.70;;
47431;SDS011;33183;52.290;6.144;2023-02-26T13:12:13;1.48;;;0.90;;
47431;SDS011;33183;52.290;6.144;2023-02-26T13:17:35;2.08;;;0.90;;
47431;SDS011;33183;52.290;6.144;2023-02-26T13:20:14;2.05;;;0.90;;
47431;SDS011;33183;52.290;6.144;2023-02-26T13:22:46;2.40;;;0.70;;
47431;SDS011;33183;52.290;6.144;2023-02-26T13:28:00;1.95;;;1.00;;
47431;SDS011;33183;52.290;6.144;2023-02-26T13:30:30;2.50;;;0.70;;
47431;SDS011;33183;52.290;6.144;2023-02-26T13:32:59;1.85;;;0.57;;
47431;SDS011;33183;52.290;6.144;2023-02-26T13:35:30;1.02;;;0.65;;
47431;SDS011;33183;52.290;6.144;2023-02-26T13:37:59;4.15;;;0.95;;
47431;SDS011;33183;52.290;6.144;2023-02-26T13:46:38;1.65;;;0.90;;
47431;SDS011;33183;52.290;6.144;2023-02-26T14:01:48;0.90;;;0.65;;
47431;SDS011;33183;52.290;6.144;2023-02-26T14:06:48;1.38;;;0.63;;
47431;SDS011;33183;52.290;6.144;2023-02-26T14:19:35;1.38;;;0.60;;
47431;SDS011;33183;52.290;6.144;2023-02-26T14:22:16;2.00;;;0.93;;
47431;SDS011;33183;52.290;6.144;2023-02-26T14:24:45;1.88;;;0.50;;
47431;SDS011;33183;52.290;6.144;2023-02-26T14:38:29;0.90;;;0.50;;
47431;SDS011;33183;52.290;6.144;2023-02-26T14:40:57;2.35;;;0.60;;
47431;SDS011;33183;52.290;6.144;2023-02-26T14:43:36;1.35;;;0.50;;
47431;SDS011;33183;52.290;6.144;2023-02-26T14:46:03;1.02;;;0.60;;
47431;SDS011;33183;52.290;6.144;2023-02-26T14:48:29;1.35;;;0.77;;
47431;SDS011;33183;52.290;6.144;2023-02-26T14:51:16;1.23;;;0.50;;
47431;SDS011;33183;52.290;6.144;2023-02-26T15:10:12;0.60;;;0.43;;
47431;SDS011;33183;52.290;6.144;2023-02-26T15:15:41;1.38;;;0.57;;
47431;SDS011;33183;52.290;6.144;2023-02-26T15:26:23;1.05;;;0.50;;
47431;SDS011;33183;52.290;6.144;2023-02-26T15:28:51;1.80;;;0.70;;
47431;SDS011;33183;52.290;6.144;2023-02-26T15:31:18;2.63;;;0.50;;
47431;SDS011;33183;52.290;6.144;2023-02-26T15:33:48;0.85;;;0.50;;
47431;SDS011;33183;52.290;6.144;2023-02-26T15:36:15;1.05;;;0.50;;
47431;SDS011;33183;52.290;6.144;2023-02-26T15:38:45;0.85;;;0.50;;
47431;SDS011;33183;52.290;6.144;2023-02-26T15:41:12;1.05;;;0.40;;
47431;SDS011;33183;52.290;6.144;2023-02-26T15:43:38;1.10;;;0.57;;
47431;SDS011;33183;52.290;6.144;2023-02-26T15:46:07;1.48;;;0.55;;
47431;SDS011;33183;52.290;6.144;2023-02-26T15:48:33;1.10;;;0.52;;
47431;SDS011;33183;52.290;6.144;2023-02-26T15:51:06;1.20;;;0.50;;
47431;SDS011;33183;52.290;6.144;2023-02-26T15:53:37;0.50;;;0.40;;
47431;SDS011;33183;52.290;6.144;2023-02-26T15:56:11;6.97;;;0.57;;
47431;SDS011;33183;52.290;6.144;2023-02-26T16:01:19;0.63;;;0.47;;
47431;SDS011;33183;52.290;6.144;2023-02-26T16:03:46;0.73;;;0.57;;
47431;SDS011;33183;52.290;6.144;2023-02-26T16:06:13;0.70;;;0.40;;
47431;SDS011;33183;52.290;6.144;2023-02-26T16:08:40;1.50;;;0.47;;
47431;SDS011;33183;52.290;6.144;2023-02-26T16:11:05;1.75;;;0.68;;
47431;SDS011;33183;52.290;6.144;2023-02-26T16:13:32;1.23;;;0.40;;
47431;SDS011;33183;52.290;6.144;2023-02-26T16:16:02;0.75;;;0.47;;
47431;SDS011;33183;52.290;6.144;2023-02-26T16:18:32;1.80;;;0.77;;
47431;SDS011;33183;52.290;6.144;2023-02-26T16:20:59;0.70;;;0.45;;
47431;SDS011;33183;52.290;6.144;2023-02-26T16:23:46;0.73;;;0.50;;
47431;SDS011;33183;52.290;6.144;2023-02-26T16:26:14;0.82;;;0.40;;
47431;SDS011;33183;52.290;6.144;2023-02-26T16:28:43;1.00;;;0.55;;
47431;SDS011;33183;52.290;6.144;2023-02-26T16:31:16;0.98;;;0.52;;
47431;SDS011;33183;52.290;6.144;2023-02-26T16:33:48;1.50;;;0.40;;
47431;SDS011;33183;52.290;6.144;2023-02-26T16:38:55;0.50;;;0.40;;
47431;SDS011;33183;52.290;6.144;2023-02-26T16:41:24;0.95;;;0.50;;
47431;SDS011;33183;52.290;6.144;2023-02-26T16:43:52;1.08;;;0.30;;
47431;SDS011;33183;52.290;6.144;2023-02-26T16:49:27;0.70;;;0.52;;
47431;SDS011;33183;52.290;6.144;2023-02-26T16:51:55;0.60;;;0.50;;
47431;SDS011;33183;52.290;6.144;2023-02-26T16:54:28;0.95;;;0.47;;
47431;SDS011;33183;52.290;6.144;2023-02-26T16:56:58;0.52;;;0.43;;
47431;SDS011;33183;52.290;6.144;2023-02-26T16:59:28;1.75;;;0.65;;
47431;SDS011;33183;52.290;6.144;2023-02-26T17:01:58;1.33;;;0.40;;
47431;SDS011;33183;52.290;6.144;2023-02-26T17:04:27;1.15;;;0.50;;
47431;SDS011;33183;52.290;6.144;2023-02-26T17:06:56;0.65;;;0.40;;
47431;SDS011;33183;52.290;6.144;2023-02-26T17:12:05;0.95;;;0.40;;
47431;SDS011;33183;52.290;6.144;2023-02-26T17:14:50;1.17;;;0.80;;
47431;SDS011;33183;52.290;6.144;2023-02-26T17:17:18;4.50;;;2.38;;
47431;SDS011;33183;52.290;6.144;2023-02-26T17:19:43;7.50;;;2.25;;
47431;SDS011;33183;52.290;6.144;2023-02-26T17:22:11;3.83;;;1.90;;
47431;SDS011;33183;52.290;6.144;2023-02-26T17:24:39;4.57;;;1.35;;
47431;SDS011;33183;52.290;6.144;2023-02-26T17:29:41;3.78;;;1.63;;
47431;SDS011;33183;52.290;6.144;2023-02-26T17:32:25;2.72;;;1.75;;
47431;SDS011;33183;52.290;6.144;2023-02-26T17:34:51;3.05;;;1.60;;
47431;SDS011;33183;52.290;6.144;2023-02-26T17:37:17;5.60;;;1.85;;
47431;SDS011;33183;52.290;6.144;2023-02-26T17:39:44;4.15;;;1.70;;
47431;SDS011;33183;52.290;6.144;2023-02-26T17:42:13;4.35;;;1.77;;
47431;SDS011;33183;52.290;6.144;2023-02-26T17:44:40;4.60;;;1.33;;
47431;SDS011;33183;52.290;6.144;2023-02-26T17:47:08;3.22;;;1.45;;
47431;SDS011;33183;52.290;6.144;2023-02-26T17:49:37;3.70;;;1.50;;
47431;SDS011;33183;52.290;6.144;2023-02-26T17:52:02;2.65;;;1.17;;
47431;SDS011;33183;52.290;6.144;2023-02-26T17:54:28;2.13;;;1.10;;
47431;SDS011;33183;52.290;6.144;2023-02-26T17:56:53;4.30;;;1.15;;
47431;SDS011;33183;52.290;6.144;2023-02-26T17:59:18;2.88;;;1.33;;
47431;SDS011;33183;52.290;6.144;2023-02-26T18:01:44;3.05;;;1.20;;
47431;SDS011;33183;52.290;6.144;2023-02-26T18:04:09;1.85;;;1.00;;
47431;SDS011;33183;52.290;6.144;2023-02-26T18:06:35;2.38;;;1.02;;
47431;SDS011;33183;52.290;6.144;2023-02-26T18:09:02;2.00;;;1.08;;
47431;SDS011;33183;52.290;6.144;2023-02-26T18:11:31;2.97;;;1.27;;
47431;SDS011;33183;52.290;6.144;2023-02-26T18:13:57;2.05;;;0.90;;
47431;SDS011;33183;52.290;6.144;2023-02-26T18:16:26;1.67;;;0.90;;
47431;SDS011;33183;52.290;6.144;2023-02-26T18:19:00;2.10;;;1.02;;
47431;SDS011;33183;52.290;6.144;2023-02-26T18:21:26;2.45;;;1.30;;
47431;SDS011;33183;52.290;6.144;2023-02-26T18:23:52;2.65;;;1.27;;
47431;SDS011;33183;52.290;6.144;2023-02-26T18:26:20;2.13;;;1.13;;
47431;SDS011;33183;52.290;6.144;2023-02-26T18:28:47;2.17;;;1.27;;